Flight Track Log - Related Links

Times and Time Zones

All times are in EDT time to prevent confusion due to time zone crossing. See the AAY860 flight status page for this flight to view local times or setup timezone preferences in your user account.

Time Position Orientation Groundspeed Altitude Reporting Facility
EDT Latitude Longitude Course Direction KTS MPH feet Rate Location/Type
Mon 06:26:20 AM 27.9333 -82.7000 360° North 170 196 900  Level Tampa TRACON
Mon 06:26:38 AM 27.9500 -82.7000 360° North 165 190 1,500 1,853 Climbing Tampa TRACON
Mon 06:28:36 AM 28.0472 -82.6522 23° Northeast 239 275 5,100 2,122 Climbing Miami Center
Mon 06:34:33 AM 28.5983 -82.6232 North 382 440 18,300 2,170 Climbing FlightAware ADS-B
Mon 06:35:17 AM 28.6737 -82.6204 North 388 447 19,600 1,615 Climbing FlightAware ADS-B
Mon 06:36:17 AM 28.7628 -82.6172 North 388 447 21,100 1,563 Climbing FlightAware ADS-B
Mon 06:37:16 AM 28.9001 -82.6122 North 412 474 22,700 1,612 Climbing FlightAware ADS-B
Mon 06:38:31 AM 29.0453 -82.6070 North 415 478 24,700 1,448 Climbing FlightAware ADS-B
Mon 06:39:12 AM 29.1253 -82.6041 North 428 493 25,500 1,065 Climbing FlightAware ADS-B
Mon 06:40:18 AM 29.2195 -82.6007 North 435 501 26,600 1,052 Climbing FlightAware ADS-B
Mon 06:43:23 AM 29.6445 -82.5851 North 460 529 29,900 1,040 Climbing FlightAware ADS-B
Mon 06:44:03 AM 29.7298 -82.5819 North 464 534 30,500 960 Climbing FlightAware ADS-B
Mon 06:44:38 AM 29.8055 -82.5792 North 466 536 31,100 1,340 Climbing FlightAware ADS-B
Mon 06:45:46 AM 29.9445 -82.5740 North 455 524 32,800 1,346 Climbing FlightAware ADS-B
Mon 06:46:25 AM 30.0324 -82.5707 North 455 524 33,500 1,275 Climbing FlightAware ADS-B
Mon 06:47:06 AM 30.1172 -82.5675 North 447 514 34,500 1,333 Climbing FlightAware ADS-B
Mon 06:47:46 AM 30.1986 -82.5645 North 443 510 35,300 1,052 Climbing FlightAware ADS-B
Mon 06:48:43 AM 30.3184 -82.5600 North 443 510 36,200 706 Climbing FlightAware ADS-B
Mon 06:49:45 AM 30.4269 -82.5578 North 444 511 36,700 344 Climbing Jacksonville Center
Mon 06:50:45 AM 30.5500 -82.5547 North 438 504 36,900 100 Climbing Jacksonville Center
Mon 06:51:45 AM 30.6775 -82.5494 North 438 504 36,900  Level Jacksonville Center
Mon 06:52:45 AM 30.8089 -82.5442 North 438 504 36,900  Level Jacksonville Center
Mon 06:53:45 AM 30.9319 -82.5367 North 438 504 36,900  Level Jacksonville Center
Mon 06:54:45 AM 31.0572 -82.5336 North 438 504 36,900  Level Jacksonville Center
Mon 06:55:45 AM 31.1825 -82.5258 North 438 504 36,900  Level Jacksonville Center
Mon 06:56:45 AM 31.3058 -82.5231 North 438 504 36,900 50 Level Jacksonville Center
Mon 06:57:45 AM 31.4269 -82.5128 North 438 504 37,000  Climbing Jacksonville Center
Mon 06:58:45 AM 31.5500 -82.5147 359° North 438 504 36,900 -39 Descending Jacksonville Center
Mon 07:00:17 AM 31.7169 -82.5667 345° North 424 488 36,900  Level Atlanta Center
Mon 07:01:17 AM 31.8342 -82.6064 344° North 424 488 36,900 50 Level Atlanta Center
Mon 07:02:17 AM 31.9536 -82.6486 343° North 437 503 37,000 50 Climbing Atlanta Center
Mon 07:03:17 AM 32.0731 -82.6858 345° North 442 509 37,000  Level Atlanta Center
Mon 07:04:17 AM 32.1925 -82.7283 343° North 442 509 37,000  Level Atlanta Center
Mon 07:05:17 AM 32.3097 -82.7658 345° North 442 509 37,000 -50 Level Atlanta Center
Mon 07:06:17 AM 32.4314 -82.8058 344° North 442 509 36,900  Descending Atlanta Center
Mon 07:07:17 AM 32.5486 -82.8486 343° North 436 502 37,000 50 Climbing Atlanta Center
Mon 07:08:17 AM 32.6681 -82.8864 345° North 436 502 37,000 -50 Level Atlanta Center
Mon 07:09:17 AM 32.7872 -82.9269 344° North 441 507 36,900  Descending Atlanta Center
Mon 07:10:17 AM 32.9086 -82.9700 343° North 447 514 37,000 50 Climbing Atlanta Center
Mon 07:11:17 AM 33.0322 -83.0131 344° North 447 514 37,000  Level Atlanta Center
Mon 07:12:17 AM 33.1536 -83.0514 345° North 452 520 37,000 -50 Level Atlanta Center
Mon 07:13:17 AM 33.2772 -83.0922 345° North 457 526 36,900  Descending Atlanta Center
Mon 07:14:17 AM 33.4006 -83.1356 344° North 457 526 37,000 50 Climbing Atlanta Center
Mon 07:15:17 AM 33.5219 -83.1792 343° North 457 526 37,000  Level Atlanta Center
Mon 07:20:51 AM 34.2370 -83.4072 347° North 459 528 37,000  Level FlightAware ADS-B (KDZJ)
Mon 07:21:32 AM 34.3224 -83.4317 346° North 451 519 37,000 -289 Level FlightAware ADS-B (KDZJ)
Mon 07:22:14 AM 34.4084 -83.4564 346° North 451 519 36,600 -667 Descending FlightAware ADS-B (KDZJ)
Mon 07:22:53 AM 34.4895 -83.4797 347° North 464 534 36,100 -486 Descending FlightAware ADS-B (KDZJ)
Mon 07:23:28 AM 34.5622 -83.5007 347° North 465 535 36,000 -74 Descending FlightAware ADS-B (KDZJ)
Mon 07:24:14 AM 34.6587 -83.5285 347° North 466 536 36,000  Level FlightAware ADS-B (KDZJ)
Mon 07:24:54 AM 34.7431 -83.5529 347° North 466 536 36,000  Level FlightAware ADS-B (KDZJ)
Mon 07:25:34 AM 34.8272 -83.5774 347° North 465 535 36,000  Level FlightAware ADS-B (KDZJ)
Mon 07:26:13 AM 34.9095 -83.6014 347° North 464 534 36,000  Level FlightAware ADS-B (KDZJ)
Mon 07:26:53 AM 34.9917 -83.6252 347° North 462 532 36,000  Level FlightAware ADS-B (KDZJ)
Mon 07:27:33 AM 35.0750 -83.6496 346° North 451 519 36,000  Level FlightAware ADS-B (KDZJ)
Mon 07:28:34 AM 35.1997 -83.6862 346° North 449 517 36,000  Level FlightAware ADS-B (KDZJ)
Mon 07:29:14 AM 35.2833 -83.7107 346° North 448 516 36,000  Level FlightAware ADS-B (KDZJ)
Mon 07:29:51 AM 35.3595 -83.7332 346° North 447 514 36,000  Level FlightAware ADS-B (KDZJ)
Mon 07:30:24 AM 35.4270 -83.7531 346° North 447 514 36,000 -90 Level FlightAware ADS-B (KDZJ)
Mon 07:30:58 AM 35.4957 -83.7733 346° North 447 514 35,900  Descending FlightAware ADS-B (KDZJ)
Mon 07:32:17 AM 35.6431 -83.8189 346° North 452 520 36,000 -302 Climbing Atlanta Center
Mon 07:33:17 AM 35.7639 -83.8544 347° North 452 520 35,200 -1,950 Descending Atlanta Center
Mon 07:34:17 AM 35.8892 -83.8900 347° North 452 520 32,100 -2,750 Descending Atlanta Center
Mon 07:35:17 AM 36.0103 -83.9258 347° North 452 520 29,700 -1,613 Descending Atlanta Center
Mon 07:37:23 AM 36.2375 -83.9861 348° North 434 499 27,100 -1,181 Descending Indianapolis Center
Mon 07:38:25 AM 36.3719 -84.0233 347° North 421 484 26,000 -1,024 Descending Indianapolis Center
Mon 07:39:26 AM 36.4831 -84.0544 347° North 417 480 25,000 -927 Descending Indianapolis Center
Mon 07:40:28 AM 36.5969 -84.0853 348° North 410 472 24,100 -585 Descending Indianapolis Center
Mon 07:41:29 AM 36.7042 -84.1147 348° North 400 460 23,800 -878 Descending Indianapolis Center
Mon 07:42:31 AM 36.8119 -84.1450 347° North 397 457 22,300 -2,098 Descending Indianapolis Center
Mon 07:43:32 AM 36.9233 -84.1764 347° North 404 465 19,500 -2,293 Descending Indianapolis Center
Mon 07:44:34 AM 37.0294 -84.2069 347° North 397 457 17,600 -1,902 Descending Indianapolis Center
Mon 07:45:35 AM 37.1319 -84.2350 348° North 382 440 15,600 -1,902 Descending Indianapolis Center
Mon 07:46:37 AM 37.2294 -84.2633 347° North 365 420 13,700 -1,805 Descending Indianapolis Center
Mon 07:47:38 AM 37.3392 -84.2939 348° North 348 400 11,900 -1,610 Descending Indianapolis Center
Mon 07:48:40 AM 37.4250 -84.3186 347° North 325 374 10,400 -927 Descending Indianapolis Center
Mon 07:49:41 AM 37.5039 -84.3414 347° North 298 343 10,000 -195 Descending Indianapolis Center
Mon 07:50:43 AM 37.5844 -84.3561 352° North 291 335 10,000 -48 Level Indianapolis Center
Mon 07:51:45 AM 37.6664 -84.3642 356° North 293 337 9,900 -537 Descending Indianapolis Center
Mon 07:52:46 AM 37.7456 -84.3714 356° North 288 331 8,900 -1,220 Descending Indianapolis Center
Mon 07:53:48 AM 37.8236 -84.3789 356° North 284 327 7,400 -1,366 Descending Indianapolis Center
Mon 07:54:49 AM 37.8964 -84.3836 357° North 268 308 6,100 -1,268 Descending Indianapolis Center
Mon 07:55:51 AM 37.9786 -84.3872 358° North 258 297 4,800 -1,171 Descending Indianapolis Center
Mon 07:56:52 AM 38.0425 -84.3767 North 236 272 3,700 -780 Descending Indianapolis Center
Mon 07:57:54 AM 38.1019 -84.3644 North 220 253 3,200 -244 Descending Indianapolis Center
Mon 07:58:55 AM 38.1514 -84.3825 344° North 213 245 3,200  Level Indianapolis Center
Mon 07:59:57 AM 38.1661 -84.4431 287° West 198 228 3,200  Level Indianapolis Center
Mon 08:00:59 AM 38.1361 -84.4947 234° Southwest 190 219 3,200 -293 Level Indianapolis Center
Mon 08:02:00 AM 38.1069 -84.5278 222° Southwest 167 192 2,600 -683 Descending Indianapolis Center
Mon 08:03:02 AM 38.0736 -84.5642 221° Southwest 149 171 1,800 -774 Descending Indianapolis Center

Login

Don't have an account? Register now (free) for customized features, flight alerts, and more!